Terminal Aerodrome Forecast
Issued by NWS Knoxville/Tri Cities, TN

Home | Current Version | Previous Version | Text Only | Print | Product List | Glossary On
Versions: 1 2 3 4 5 6 7 8 9 10 11 12 13 14 15 16 17 18 19 20 21 22 23 24 25 26
000
FTUS44 KMRX 272320
TAFTRI
TAF
KTRI 272320Z 2800/2824 00000KT P6SM SCT150
     FM280600 00000KT 3SM BR SKC
     FM280800 00000KT 1 1/2SM BR SKC
      TEMPO 2809/2812 1/2SM FG VV002
     FM281300 00000KT P6SM SCT250
     FM281800 VRB03KT P6SM SCT050 BKN250=

USA.gov is the U.S. government's official web portal to all federal, state and local government web resources and services.